Ext Villas de Loiza, Puerto Rico
Current Conditions -  °F | °C
As of 6:56 PM on Monday 24 Nov 2014 (Local Time) from TJSJ Reporting Station
Broken Clouds Broken Clouds  
Wind Chill: 80°   Ceiling: 4100
Heat Index: 85°   Visibility: 10mi
Dew Point: 76°   Wind: 3mph
Humidity: 87%   Direction: 100°E
Pressure: 30.03"   Gusts: NA
Location:  18.3747°N, 65.9126°W
Report Text: TJSJ 242256Z 10003KT 10SM SCT023 BKN041 BKN050 27/24 A3003 RMK AO2 SLP167 T02670244
Loading
Personal Weather Stations






























Interactive Weather Map New forecast layout! Learn more

10-Day Weather Forecast

Advertisements
Track Severe Weather on mobile